Time;durP1;ratioP1;P1;durP2;ratioP2;P2;SDS_P1;SDS_P2;PMS_P1;PMS_P2;Temp;Humidity;BMP_temperature;BMP_pressure;BME280_temperature;BME280_humidity;BME280_pressure;Samples;Min_cycle;Max_cycle;Signal;HPM_P1;HPM_P2
2022/02/09 00:00:04;;;;;;;;;;;1.20;99.90;;;;;;4174587;28;19959;-57
2022/02/09 00:08:35;;;;;;;;;;;1.30;99.90;;;;;;4175409;28;20634;-56
2022/02/09 00:10:38;;;;;;;;;;;1.20;99.90;;;;;;4173638;28;19913;-54
2022/02/09 00:12:46;;;;;;;;;;;1.20;99.90;;;;;;4175192;28;20320;-60
2022/02/09 00:15:08;;;;;;;;;;;1.30;99.90;;;;;;4176782;28;19941;-55
2022/02/09 00:19:21;;;;;;;;;;;1.30;99.90;;;;;;4174478;28;19909;-59
2022/02/09 00:23:43;;;;;;;;;;;1.30;99.90;;;;;;4174131;28;19966;-55
2022/02/09 00:28:32;;;;;;;;;;;1.30;99.90;;;;;;4190552;28;19954;-59
2022/02/09 00:31:14;;;;;;;;;;;1.30;99.90;;;;;;4183776;28;19921;-59
2022/02/09 00:35:45;;;;;;;;;;;1.30;99.90;;;;;;4190494;28;19913;-60
2022/02/09 00:38:20;;;;;;;;;;;1.30;99.90;;;;;;4192076;28;19916;-54
2022/02/09 01:56:02;;;;;;;;;;;0.80;99.90;;;;;;4164148;28;19967;-55
2022/02/09 01:58:03;;;;;;;;;;;0.80;99.90;;;;;;4172606;28;19970;-54
2022/02/09 02:00:06;;;;;;;;;;;0.80;99.90;;;;;;4173878;28;20262;-58
2022/02/09 02:02:09;;;;;;;;;;;0.80;99.90;;;;;;4173829;28;19962;-55
2022/02/09 02:04:09;;;;;;;;;;;0.70;99.90;;;;;;4177724;28;19916;-54
2022/02/09 02:06:13;;;;;;;;;;;0.60;99.90;;;;;;4188952;28;19962;-55
2022/02/09 02:08:15;;;;;;;;;;;0.60;99.90;;;;;;4189429;28;19912;-51
2022/02/09 02:10:21;;;;;;;;;;;0.60;99.90;;;;;;4189150;28;19943;-57
2022/02/09 02:12:24;;;;;;;;;;;0.60;99.90;;;;;;4189584;28;19917;-55
2022/02/09 02:14:35;;;;;;;;;;;0.60;99.90;;;;;;4186454;28;19913;-59
2022/02/09 02:16:46;;;;;;;;;;;0.60;99.90;;;;;;4188844;28;19962;-57
2022/02/09 02:19:05;;;;;;;;;;;0.70;99.90;;;;;;4188889;28;20341;-58
2022/02/09 02:21:25;;;;;;;;;;;0.70;99.90;;;;;;4189992;28;19916;-58
2022/02/09 02:26:03;;;;;;;;;;;0.60;99.90;;;;;;4189048;28;19924;-55
2022/02/09 03:16:46;;;;;;;;;;;0.70;99.90;;;;;;4175355;28;20373;-57
2022/02/09 03:23:02;;;;;;;;;;;0.50;99.90;;;;;;4175954;28;19912;-61
2022/02/09 03:48:28;;;;;;;;;;;0.40;99.90;;;;;;4176689;28;20319;-57
2022/02/09 03:51:32;;;;;;;;;;;0.40;99.90;;;;;;4170183;28;19925;-55
2022/02/09 03:57:47;;;;;;;;;;;0.30;99.90;;;;;;4147579;28;20008;-60
2022/02/09 03:59:48;;;;;;;;;;;0.40;99.90;;;;;;4158165;28;19917;-61
2022/02/09 04:01:49;;;;;;;;;;;0.30;99.90;;;;;;4158576;28;20366;-60
2022/02/09 04:03:50;;;;;;;;;;;0.30;99.90;;;;;;4157897;28;19912;-55
2022/02/09 04:05:51;;;;;;;;;;;0.30;99.90;;;;;;4174462;28;19927;-59
2022/02/09 04:07:52;;;;;;;;;;;0.30;99.90;;;;;;4174529;28;20468;-53
2022/02/09 04:09:57;;;;;;;;;;;0.30;99.90;;;;;;4175791;28;19912;-58
2022/02/09 04:12:24;;;;;;;;;;;0.40;99.90;;;;;;4158231;28;19967;-54
2022/02/09 04:14:41;;;;;;;;;;;0.40;99.90;;;;;;4158720;28;19917;-57
2022/02/09 04:19:05;;;;;;;;;;;0.40;99.90;;;;;;4162809;28;19921;-59
2022/02/09 04:37:32;;;;;;;;;;;0.50;99.90;;;;;;4157476;28;19936;-57
2022/02/09 04:39:54;;;;;;;;;;;0.50;99.90;;;;;;4158361;28;19978;-55
2022/02/09 04:44:18;;;;;;;;;;;0.50;99.90;;;;;;4165153;28;20054;-58
2022/02/09 04:55:01;;;;;;;;;;;0.40;99.90;;;;;;4190058;28;20357;-56
2022/02/09 04:59:24;;;;;;;;;;;0.40;99.90;;;;;;4189915;28;20001;-59
2022/02/09 05:24:13;;;;;;;;;;;0.60;99.90;;;;;;4179712;28;20436;-57
2022/02/09 05:28:20;;;;;;;;;;;0.60;99.90;;;;;;4190521;28;19916;-53
2022/02/09 05:30:22;;;;;;;;;;;0.60;99.90;;;;;;4177665;28;20254;-56
2022/02/09 05:32:23;;;;;;;;;;;0.60;99.90;;;;;;4184191;28;19913;-57
2022/02/09 05:34:23;;;;;;;;;;;0.60;99.90;;;;;;4179687;28;20758;-53
2022/02/09 05:36:24;;;;;;;;;;;0.60;99.90;;;;;;4190058;28;19917;-57
2022/02/09 05:38:26;;;;;;;;;;;0.60;99.90;;;;;;4186457;28;19917;-55
2022/02/09 05:40:27;;;;;;;;;;;0.60;99.90;;;;;;4181555;28;19916;-53
2022/02/09 05:42:28;;;;;;;;;;;0.60;99.90;;;;;;4182319;28;19986;-57
2022/02/09 05:44:29;;;;;;;;;;;0.60;99.90;;;;;;4172735;28;20357;-53
2022/02/09 05:51:13;;;;;;;;;;;0.70;99.90;;;;;;4183527;28;19916;-57
2022/02/09 05:53:19;;;;;;;;;;;0.70;99.90;;;;;;4185429;28;19981;-58
2022/02/09 05:56:06;;;;;;;;;;;0.60;99.90;;;;;;4182769;28;19920;-58
2022/02/09 05:57:51;;;;;;;;;;;0.60;99.90;;;;;;4170933;28;19963;-53
2022/02/09 05:59:52;;;;;;;;;;;0.60;99.90;;;;;;4187028;28;19977;-52
2022/02/09 06:01:53;;;;;;;;;;;0.60;99.90;;;;;;4189750;28;20488;-53
2022/02/09 06:03:53;;;;;;;;;;;0.60;99.90;;;;;;4188699;28;19966;-54
2022/02/09 06:05:56;;;;;;;;;;;0.70;99.90;;;;;;4188407;28;19973;-57
2022/02/09 06:07:57;;;;;;;;;;;0.60;99.90;;;;;;4189273;28;19916;-58
2022/02/09 06:09:58;;;;;;;;;;;0.60;99.90;;;;;;4189224;28;20010;-57
2022/02/09 06:12:14;;;;;;;;;;;0.60;99.90;;;;;;4188693;28;19912;-54
2022/02/09 06:21:06;;;;;;;;;;;0.80;99.90;;;;;;4188745;28;19943;-56
2022/02/09 06:23:07;;;;;;;;;;;0.90;99.90;;;;;;4188391;28;19944;-53
2022/02/09 06:25:08;;;;;;;;;;;1.00;99.90;;;;;;4188766;28;20315;-57
2022/02/09 06:27:10;;;;;;;;;;;1.00;99.90;;;;;;4188623;28;20372;-55
2022/02/09 06:29:11;;;;;;;;;;;1.10;99.90;;;;;;4189262;28;19913;-53
2022/02/09 06:31:12;;;;;;;;;;;1.10;99.90;;;;;;4188596;28;19912;-53
2022/02/09 06:33:14;;;;;;;;;;;1.10;99.90;;;;;;4189355;28;20403;-58
2022/02/09 06:35:18;;;;;;;;;;;1.20;99.90;;;;;;4188646;28;20372;-54
2022/02/09 06:37:23;;;;;;;;;;;1.20;99.90;;;;;;4188989;28;19962;-57
2022/02/09 06:39:26;;;;;;;;;;;1.30;99.90;;;;;;4188020;28;20261;-58
2022/02/09 06:41:27;;;;;;;;;;;1.30;99.90;;;;;;4189334;28;19994;-55
2022/02/09 06:43:29;;;;;;;;;;;1.40;99.90;;;;;;4187762;28;20006;-59
2022/02/09 06:45:36;;;;;;;;;;;1.40;99.90;;;;;;4189121;28;19932;-58
2022/02/09 06:47:38;;;;;;;;;;;1.40;99.90;;;;;;4187882;28;19917;-58
2022/02/09 06:49:41;;;;;;;;;;;1.50;99.90;;;;;;4189186;28;19928;-56
2022/02/09 06:51:45;;;;;;;;;;;1.50;99.90;;;;;;4188144;28;19912;-58
2022/02/09 06:53:59;;;;;;;;;;;1.60;99.90;;;;;;4187576;28;19917;-58
2022/02/09 06:56:00;;;;;;;;;;;1.60;99.90;;;;;;4188532;28;19916;-57
2022/02/09 06:58:04;;;;;;;;;;;1.60;99.90;;;;;;4189808;28;19962;-58
2022/02/09 07:00:05;;;;;;;;;;;1.70;99.90;;;;;;4187531;28;19916;-54
2022/02/09 07:02:07;;;;;;;;;;;1.80;99.90;;;;;;4188897;28;19912;-57
2022/02/09 07:04:08;;;;;;;;;;;1.90;99.90;;;;;;4188768;28;19973;-60
2022/02/09 07:06:08;;;;;;;;;;;2.00;99.90;;;;;;4188470;28;20303;-56
2022/02/09 07:08:09;;;;;;;;;;;2.00;99.90;;;;;;4189119;28;19919;-57
2022/02/09 07:10:11;;;;;;;;;;;2.00;99.90;;;;;;4187453;28;19912;-52
2022/02/09 07:12:12;;;;;;;;;;;1.90;99.90;;;;;;4188521;28;20361;-55
2022/02/09 07:14:13;;;;;;;;;;;1.80;99.90;;;;;;4186919;28;19920;-59
2022/02/09 07:16:14;;;;;;;;;;;1.70;99.90;;;;;;4188976;28;19920;-58
2022/02/09 07:18:15;;;;;;;;;;;1.60;99.90;;;;;;4187387;28;19982;-53
2022/02/09 07:20:21;;;;;;;;;;;1.50;99.90;;;;;;4188965;28;19970;-55
2022/02/09 07:22:26;;;;;;;;;;;1.50;99.90;;;;;;4187480;28;20335;-58
2022/02/09 07:24:29;;;;;;;;;;;1.50;99.90;;;;;;4188233;28;19916;-58
2022/02/09 07:26:47;;;;;;;;;;;1.50;99.90;;;;;;4188078;28;19920;-54
2022/02/09 07:28:48;;;;;;;;;;;1.50;99.90;;;;;;4188584;28;19912;-58
2022/02/09 07:30:49;;;;;;;;;;;1.60;99.90;;;;;;4188231;28;19981;-58
2022/02/09 07:32:51;;;;;;;;;;;1.70;99.90;;;;;;4188153;28;19919;-54
2022/02/09 07:34:52;;;;;;;;;;;1.70;99.90;;;;;;4187457;28;20400;-55
2022/02/09 07:36:52;;;;;;;;;;;1.70;99.90;;;;;;4188633;28;19916;-62
2022/02/09 07:38:54;;;;;;;;;;;1.80;99.90;;;;;;4187789;28;20254;-57
2022/02/09 07:40:58;;;;;;;;;;;1.80;99.90;;;;;;4190372;28;20007;-58
2022/02/09 07:43:08;;;;;;;;;;;1.90;99.90;;;;;;4191169;28;20442;-61
2022/02/09 07:47:42;;;;;;;;;;;2.00;99.90;;;;;;4191685;28;19920;-57
2022/02/09 07:50:14;;;;;;;;;;;2.10;99.90;;;;;;4191303;28;19928;-54
2022/02/09 07:52:22;;;;;;;;;;;2.30;99.90;;;;;;4190544;28;19943;-54
2022/02/09 07:54:25;;;;;;;;;;;2.40;99.90;;;;;;4174108;28;19935;-57
2022/02/09 07:56:27;;;;;;;;;;;2.60;99.90;;;;;;4190842;28;20742;-57
2022/02/09 07:58:28;;;;;;;;;;;2.80;99.90;;;;;;4191487;28;19912;-64
2022/02/09 08:00:29;;;;;;;;;;;2.90;99.90;;;;;;4190227;28;19924;-62
2022/02/09 08:02:30;;;;;;;;;;;3.10;99.90;;;;;;4190797;28;20053;-65
2022/02/09 08:04:31;;;;;;;;;;;3.30;99.90;;;;;;4191550;28;19920;-66
2022/02/09 08:06:32;;;;;;;;;;;3.40;99.90;;;;;;4190169;28;21452;-61
2022/02/09 08:08:34;;;;;;;;;;;3.50;99.90;;;;;;4191501;28;19978;-62
2022/02/09 08:32:41;;;;;;;;;;;4.90;99.90;;;;;;4190080;28;19962;-59
2022/02/09 08:34:42;;;;;;;;;;;5.00;99.90;;;;;;4190599;28;20266;-58
2022/02/09 08:36:44;;;;;;;;;;;5.10;99.90;;;;;;4189776;28;19913;-65
2022/02/09 08:38:45;;;;;;;;;;;5.30;99.90;;;;;;4191369;28;19946;-55
2022/02/09 08:40:47;;;;;;;;;;;5.40;99.90;;;;;;4189981;28;19916;-57
2022/02/09 08:42:48;;;;;;;;;;;5.60;99.90;;;;;;4191343;28;19912;-56
2022/02/09 08:44:49;;;;;;;;;;;5.70;99.90;;;;;;4189955;28;19969;-56
2022/02/09 08:46:50;;;;;;;;;;;5.80;99.90;;;;;;4190711;28;19924;-56
2022/02/09 08:48:50;;;;;;;;;;;5.90;99.90;;;;;;4189561;28;19924;-62
2022/02/09 08:50:52;;;;;;;;;;;5.90;99.90;;;;;;4190385;28;19971;-57
2022/02/09 08:52:53;;;;;;;;;;;6.00;99.90;;;;;;4189352;28;19913;-59
2022/02/09 08:54:54;;;;;;;;;;;6.10;99.90;;;;;;4190420;28;19921;-61
2022/02/09 08:56:55;;;;;;;;;;;6.30;99.90;;;;;;4190105;28;19918;-57
2022/02/09 08:59:00;;;;;;;;;;;6.40;99.90;;;;;;4190532;28;19913;-60
2022/02/09 09:01:09;;;;;;;;;;;6.40;99.90;;;;;;4188424;28;20418;-56
2022/02/09 09:05:21;;;;;;;;;;;6.50;99.90;;;;;;4189908;28;19978;-57
2022/02/09 09:07:27;;;;;;;;;;;6.50;99.90;;;;;;4188547;28;19924;-58
2022/02/09 09:10:16;;;;;;;;;;;6.60;99.90;;;;;;4190559;28;19912;-58
2022/02/09 09:17:16;;;;;;;;;;;7.10;99.90;;;;;;4190458;28;20418;-59
2022/02/09 09:19:32;;;;;;;;;;;7.20;99.90;;;;;;4188991;28;19958;-57
2022/02/09 09:58:46;;;;;;;;;;;7.80;99.90;;;;;;4191831;28;19966;-58
2022/02/09 10:03:23;;;;;;;;;;;7.80;99.90;;;;;;4188080;28;19958;-66
2022/02/09 10:05:45;;;;;;;;;;;7.80;99.90;;;;;;4189619;28;20253;-62
2022/02/09 10:32:47;;;;;;;;;;;8.30;99.90;;;;;;4189158;28;19970;-56
2022/02/09 10:34:13;;;;;;;;;;;8.20;99.90;;;;;;4184265;28;19942;-64
2022/02/09 10:36:18;;;;;;;;;;;8.10;99.90;;;;;;4188042;28;19962;-53
2022/02/09 10:38:21;;;;;;;;;;;8.20;99.90;;;;;;4189215;28;20356;-59
2022/02/09 10:40:27;;;;;;;;;;;8.20;99.90;;;;;;4188861;28;20849;-59
2022/02/09 10:42:38;;;;;;;;;;;8.30;99.90;;;;;;4188727;28;19934;-58
2022/02/09 10:44:46;;;;;;;;;;;8.30;99.90;;;;;;4186818;28;19916;-59
2022/02/09 10:46:52;;;;;;;;;;;8.30;99.90;;;;;;4187431;28;20364;-58
2022/02/09 10:48:56;;;;;;;;;;;8.40;99.90;;;;;;4188779;28;19932;-61
2022/02/09 10:51:14;;;;;;;;;;;8.50;99.90;;;;;;4187832;28;19916;-54
2022/02/09 10:53:15;;;;;;;;;;;8.40;99.90;;;;;;4189195;28;19916;-58
2022/02/09 10:55:28;;;;;;;;;;;8.50;99.90;;;;;;4188361;28;19915;-56
2022/02/09 10:59:46;;;;;;;;;;;8.50;99.90;;;;;;4266893;23;19929;-59
2022/02/09 11:01:47;;;;;;;;;;;8.50;99.90;;;;;;4188641;28;19916;-57
2022/02/09 11:03:51;;;;;;;;;;;8.50;99.90;;;;;;4190465;28;19966;-57
2022/02/09 11:05:55;;;;;;;;;;;8.40;99.90;;;;;;4189281;28;19913;-57
2022/02/09 11:07:56;;;;;;;;;;;8.30;99.90;;;;;;4190427;28;19912;-58
2022/02/09 11:09:57;;;;;;;;;;;8.40;99.90;;;;;;4189093;28;20318;-55
2022/02/09 11:11:58;;;;;;;;;;;8.40;99.90;;;;;;4190138;28;19934;-58
2022/02/09 11:13:59;;;;;;;;;;;8.30;99.90;;;;;;4189158;28;19970;-59
2022/02/09 11:16:01;;;;;;;;;;;8.40;99.90;;;;;;4193050;28;19916;-62
2022/02/09 11:18:02;;;;;;;;;;;8.40;99.90;;;;;;4192432;28;20700;-56
2022/02/09 11:20:03;;;;;;;;;;;8.30;99.90;;;;;;4191973;28;19938;-58
2022/02/09 11:22:04;;;;;;;;;;;8.30;99.90;;;;;;4192464;28;20322;-56
2022/02/09 11:24:14;;;;;;;;;;;8.20;99.90;;;;;;4191586;28;19917;-59
2022/02/09 11:26:39;;;;;;;;;;;8.30;99.90;;;;;;4192729;28;19932;-58
2022/02/09 11:28:43;;;;;;;;;;;8.30;99.90;;;;;;4191829;28;19913;-58
2022/02/09 11:30:59;;;;;;;;;;;8.40;99.90;;;;;;4192819;28;20393;-55
2022/02/09 11:33:05;;;;;;;;;;;8.50;99.90;;;;;;4191876;28;19913;-55
2022/02/09 11:37:15;;;;;;;;;;;8.70;99.90;;;;;;4192336;28;19938;-55
2022/02/09 11:39:34;;;;;;;;;;;8.70;99.90;;;;;;4192175;28;20352;-61
2022/02/09 11:41:43;;;;;;;;;;;8.70;99.90;;;;;;4192069;28;19912;-57
2022/02/09 11:44:00;;;;;;;;;;;8.70;99.90;;;;;;4192009;28;20364;-58
2022/02/09 12:09:46;;;;;;;;;;;8.80;99.90;;;;;;4191900;28;20314;-60
2022/02/09 12:11:48;;;;;;;;;;;8.90;99.90;;;;;;4191597;28;19966;-58
2022/02/09 12:14:01;;;;;;;;;;;8.90;99.90;;;;;;4173370;28;20527;-58
2022/02/09 12:16:31;;;;;;;;;;;8.90;99.90;;;;;;4191519;28;19938;-58
2022/02/09 12:18:33;;;;;;;;;;;8.90;99.90;;;;;;4191423;28;20336;-54
2022/02/09 12:20:46;;;;;;;;;;;8.90;99.90;;;;;;4191535;28;19912;-58
2022/02/09 12:23:05;;;;;;;;;;;8.90;99.90;;;;;;4190576;28;19962;-57
2022/02/09 12:25:07;;;;;;;;;;;9.00;99.90;;;;;;4190793;28;19913;-59
2022/02/09 12:27:09;;;;;;;;;;;9.00;99.90;;;;;;4189940;28;19917;-61
2022/02/09 12:29:10;;;;;;;;;;;9.00;99.90;;;;;;4190698;28;19912;-56
2022/02/09 12:31:12;;;;;;;;;;;8.90;99.90;;;;;;4191468;28;19966;-62
2022/02/09 12:33:20;;;;;;;;;;;8.90;99.90;;;;;;4190034;28;19961;-59
2022/02/09 12:35:21;;;;;;;;;;;8.80;99.90;;;;;;4192194;28;19916;-64
2022/02/09 12:37:23;;;;;;;;;;;8.80;99.90;;;;;;4191161;28;20363;-64
2022/02/09 12:39:24;;;;;;;;;;;8.70;99.90;;;;;;4191757;28;19958;-64
2022/02/09 12:41:25;;;;;;;;;;;8.70;99.90;;;;;;4191146;28;19912;-60
2022/02/09 12:43:41;;;;;;;;;;;8.60;99.90;;;;;;4173572;28;19997;-57
2022/02/09 12:45:44;;;;;;;;;;;8.60;99.90;;;;;;4190314;28;19989;-60
2022/02/09 12:47:49;;;;;;;;;;;8.50;99.90;;;;;;4191739;28;19981;-58
2022/02/09 12:49:50;;;;;;;;;;;8.40;99.90;;;;;;4190407;28;19913;-55
2022/02/09 12:51:51;;;;;;;;;;;8.40;99.90;;;;;;4192028;28;20345;-57
2022/02/09 12:53:53;;;;;;;;;;;8.30;99.90;;;;;;4190775;28;20379;-58
2022/02/09 12:55:57;;;;;;;;;;;8.30;99.90;;;;;;4191510;28;19916;-60
2022/02/09 12:58:05;;;;;;;;;;;8.30;99.90;;;;;;4189656;28;20317;-54
2022/02/09 13:00:07;;;;;;;;;;;8.30;99.90;;;;;;4173441;28;19987;-60
2022/02/09 13:02:08;;;;;;;;;;;8.30;99.90;;;;;;4190005;28;19974;-57
2022/02/09 13:04:10;;;;;;;;;;;8.30;99.90;;;;;;4190412;28;19916;-59
2022/02/09 13:06:11;;;;;;;;;;;8.20;99.90;;;;;;4190767;28;19912;-59
2022/02/09 13:08:16;;;;;;;;;;;8.20;99.90;;;;;;4190193;28;20323;-60
2022/02/09 13:10:29;;;;;;;;;;;8.20;99.90;;;;;;4191067;28;20710;-61
2022/02/09 13:12:31;;;;;;;;;;;8.10;99.90;;;;;;4191132;28;20834;-66
2022/02/09 13:14:39;;;;;;;;;;;8.10;99.90;;;;;;4191016;28;19962;-58
2022/02/09 14:02:46;;;;;;;;;;;8.30;99.90;;;;;;4154143;28;20814;-57
2022/02/09 14:10:50;;;;;;;;;;;8.30;99.90;;;;;;4190722;28;19966;-57
2022/02/09 14:13:11;;;;;;;;;;;8.30;99.90;;;;;;4188637;28;19970;-57
2022/02/09 14:15:50;;;;;;;;;;;8.30;99.90;;;;;;4189757;28;20348;-58
2022/02/09 14:54:32;;;;;;;;;;;8.10;99.90;;;;;;4140787;28;19940;-59
2022/02/09 14:58:44;;;;;;;;;;;8.00;99.90;;;;;;4192412;28;19985;-55
2022/02/09 15:03:05;;;;;;;;;;;7.90;99.90;;;;;;4192723;28;19916;-64
2022/02/09 15:12:00;;;;;;;;;;;7.70;99.90;;;;;;4192491;28;19998;-58
2022/02/09 15:16:18;;;;;;;;;;;7.70;99.90;;;;;;4192214;28;19908;-57
2022/02/09 15:21:12;;;;;;;;;;;7.60;99.90;;;;;;4191723;28;19987;-55
2022/02/09 15:23:07;;;;;;;;;;;7.50;99.90;;;;;;4191531;28;19977;-58
2022/02/09 15:25:17;;;;;;;;;;;7.40;99.90;;;;;;4188082;28;19913;-59
2022/02/09 15:27:20;;;;;;;;;;;7.40;99.90;;;;;;4184587;28;19920;-59
2022/02/09 15:29:21;;;;;;;;;;;7.40;99.90;;;;;;4191168;28;20334;-59
2022/02/09 15:31:37;;;;;;;;;;;7.40;99.90;;;;;;4192794;28;19916;-61
2022/02/09 15:33:50;;;;;;;;;;;7.40;99.90;;;;;;4191445;28;19966;-56
2022/02/09 15:35:56;;;;;;;;;;;7.40;99.90;;;;;;4180834;28;19912;-58
2022/02/09 15:40:06;;;;;;;;;;;7.30;99.90;;;;;;4192179;28;19916;-59
2022/02/09 15:42:30;;;;;;;;;;;7.30;99.90;;;;;;4191475;28;19921;-59
2022/02/09 16:09:35;;;;;;;;;;;6.80;99.90;;;;;;4175591;28;19962;-62
2022/02/09 16:23:13;;;;;;;;;;;6.70;99.90;;;;;;4191637;28;19939;-60
2022/02/09 16:37:11;;;;;;;;;;;6.40;99.90;;;;;;4182066;28;19916;-57
2022/02/09 16:46:13;;;;;;;;;;;5.90;99.90;;;;;;4192153;28;19970;-58
2022/02/09 16:48:17;;;;;;;;;;;5.80;99.90;;;;;;4181006;28;19973;-59
2022/02/09 16:50:24;;;;;;;;;;;5.80;99.90;;;;;;4183968;28;19913;-58
2022/02/09 16:52:34;;;;;;;;;;;5.80;99.90;;;;;;4182333;28;19916;-54
2022/02/09 16:55:17;;;;;;;;;;;5.70;99.90;;;;;;4191497;28;20841;-55
2022/02/09 17:20:17;;;;;;;;;;;5.10;99.90;;;;;;4190936;28;19966;-58
2022/02/09 17:22:19;;;;;;;;;;;5.00;99.90;;;;;;4189582;28;19917;-59
2022/02/09 17:24:19;;;;;;;;;;;4.90;99.90;;;;;;4191737;28;19966;-61
2022/02/09 17:26:20;;;;;;;;;;;4.90;99.90;;;;;;4171655;28;20455;-57
2022/02/09 17:28:21;;;;;;;;;;;4.80;99.90;;;;;;4191332;28;19912;-64
2022/02/09 17:32:48;;;;;;;;;;;4.80;99.90;;;;;;4192420;28;19942;-59
2022/02/09 17:35:01;;;;;;;;;;;4.80;99.90;;;;;;4176576;28;19963;-54
2022/02/09 17:37:27;;;;;;;;;;;4.80;99.90;;;;;;4175032;28;19917;-60
2022/02/09 17:53:27;;;;;;;;;;;4.70;99.90;;;;;;4183947;28;20339;-59
2022/02/09 17:57:55;;;;;;;;;;;4.80;99.90;;;;;;4182078;28;19921;-56
2022/02/09 18:00:12;;;;;;;;;;;4.70;99.90;;;;;;4188875;28;20453;-57
2022/02/09 18:02:12;;;;;;;;;;;4.80;99.90;;;;;;4178879;28;19966;-60
2022/02/09 18:04:16;;;;;;;;;;;4.70;99.90;;;;;;4190259;28;20367;-64
2022/02/09 18:06:21;;;;;;;;;;;4.80;99.90;;;;;;4189538;28;19958;-57
2022/02/09 18:08:29;;;;;;;;;;;4.80;99.90;;;;;;4190779;28;19912;-55
2022/02/09 18:12:51;;;;;;;;;;;4.80;99.90;;;;;;4190942;28;20455;-57
2022/02/09 18:30:55;;;;;;;;;;;4.80;99.90;;;;;;4190143;28;20347;-57
2022/02/09 18:38:04;;;;;;;;;;;4.80;99.90;;;;;;4153908;28;19951;-54
2022/02/09 18:47:27;;;;;;;;;;;4.80;99.90;;;;;;4174447;28;19913;-57
2022/02/09 19:01:33;;;;;;;;;;;4.90;99.90;;;;;;4174703;28;20497;-59
2022/02/09 19:03:35;;;;;;;;;;;4.90;99.90;;;;;;4182145;28;19912;-57
2022/02/09 19:05:42;;;;;;;;;;;4.90;99.90;;;;;;4187525;28;19966;-59
2022/02/09 19:14:47;;;;;;;;;;;4.90;99.90;;;;;;4171740;28;19958;-66
2022/02/09 19:17:07;;;;;;;;;;;4.90;99.90;;;;;;4173812;28;19913;-61
2022/02/09 19:19:24;;;;;;;;;;;4.80;99.90;;;;;;4172398;28;19970;-60
2022/02/09 19:26:22;;;;;;;;;;;4.70;99.90;;;;;;4174012;28;19963;-71
2022/02/09 19:52:52;;;;;;;;;;;4.20;99.90;;;;;;4175766;28;19912;-61
2022/02/09 19:57:03;;;;;;;;;;;4.10;99.90;;;;;;4175737;28;19909;-56
2022/02/09 19:59:13;;;;;;;;;;;4.10;99.90;;;;;;4175712;28;19924;-59
2022/02/09 20:01:18;;;;;;;;;;;4.00;99.90;;;;;;4176122;28;20311;-59
2022/02/09 20:03:19;;;;;;;;;;;4.00;99.90;;;;;;4175460;28;19959;-59
2022/02/09 20:05:21;;;;;;;;;;;4.00;99.90;;;;;;4175996;28;21149;-58
2022/02/09 20:07:22;;;;;;;;;;;3.90;99.90;;;;;;4183035;28;19912;-62
2022/02/09 20:09:26;;;;;;;;;;;3.90;99.90;;;;;;4192765;28;20775;-60
2022/02/09 20:11:27;;;;;;;;;;;3.80;99.90;;;;;;4191762;28;19958;-61
2022/02/09 20:13:28;;;;;;;;;;;3.60;99.90;;;;;;4192422;28;19951;-61
2022/02/09 20:15:29;;;;;;;;;;;3.60;99.90;;;;;;4190222;28;19958;-60
2022/02/09 20:17:30;;;;;;;;;;;3.50;99.90;;;;;;4192744;28;19916;-53
2022/02/09 20:19:31;;;;;;;;;;;3.50;99.90;;;;;;4191117;28;19955;-64
2022/02/09 20:21:32;;;;;;;;;;;3.40;99.90;;;;;;4192822;28;19944;-60
2022/02/09 20:23:34;;;;;;;;;;;3.40;99.90;;;;;;4191458;28;19912;-60
2022/02/09 20:25:35;;;;;;;;;;;3.30;99.90;;;;;;4192361;28;20425;-58
2022/02/09 20:27:38;;;;;;;;;;;3.20;99.90;;;;;;4191334;28;20027;-64
2022/02/09 20:29:39;;;;;;;;;;;3.10;99.90;;;;;;4192086;28;20708;-58
2022/02/09 20:32:06;;;;;;;;;;;3.10;99.90;;;;;;4192164;28;19962;-62
2022/02/09 20:34:18;;;;;;;;;;;3.10;99.90;;;;;;4192112;28;19974;-60
2022/02/09 20:36:19;;;;;;;;;;;3.10;99.90;;;;;;4191092;28;20651;-60
2022/02/09 20:38:25;;;;;;;;;;;3.00;99.90;;;;;;4190436;28;19920;-60
2022/02/09 20:40:34;;;;;;;;;;;3.00;99.90;;;;;;4191539;28;20529;-61
2022/02/09 20:42:35;;;;;;;;;;;3.00;99.90;;;;;;4191832;28;20431;-62
2022/02/09 20:44:43;;;;;;;;;;;3.00;99.90;;;;;;4191709;28;19912;-62
2022/02/09 20:46:44;;;;;;;;;;;3.00;99.90;;;;;;4190810;28;20493;-60
2022/02/09 20:48:45;;;;;;;;;;;3.00;99.90;;;;;;4191584;28;19912;-62
2022/02/09 20:50:46;;;;;;;;;;;2.90;99.90;;;;;;4190941;28;19966;-58
2022/02/09 20:52:47;;;;;;;;;;;2.90;99.90;;;;;;4192229;28;20385;-62
2022/02/09 20:54:48;;;;;;;;;;;2.90;99.90;;;;;;4190985;28;19962;-57
2022/02/09 20:56:48;;;;;;;;;;;2.80;99.90;;;;;;4191866;28;20008;-56
2022/02/09 20:58:56;;;;;;;;;;;2.80;99.90;;;;;;4190387;28;19946;-57
2022/02/09 21:01:01;;;;;;;;;;;2.70;99.90;;;;;;4191957;28;19913;-59
2022/02/09 21:03:16;;;;;;;;;;;2.70;99.90;;;;;;4191094;28;19970;-54
2022/02/09 21:05:30;;;;;;;;;;;2.60;99.90;;;;;;4192024;28;19920;-56
2022/02/09 21:07:42;;;;;;;;;;;2.60;99.90;;;;;;4190368;28;19912;-60
2022/02/09 21:10:01;;;;;;;;;;;2.50;99.90;;;;;;4191962;28;19940;-57
2022/02/09 21:14:14;;;;;;;;;;;2.40;99.90;;;;;;4191714;28;19912;-59
2022/02/09 21:16:49;;;;;;;;;;;2.30;99.90;;;;;;4190554;28;20429;-59
2022/02/09 21:21:05;;;;;;;;;;;2.30;99.90;;;;;;4190618;28;19909;-58
2022/02/09 21:52:56;;;;;;;;;;;1.60;99.90;;;;;;4123723;28;20011;-59
2022/02/09 21:55:15;;;;;;;;;;;1.60;99.90;;;;;;4190500;28;20652;-57
2022/02/09 21:57:36;;;;;;;;;;;1.60;99.90;;;;;;4173298;28;19959;-58
2022/02/09 22:20:25;;;;;;;;;;;1.20;99.90;;;;;;4189746;28;20418;-56
2022/02/09 22:22:40;;;;;;;;;;;1.20;99.90;;;;;;4190725;28;19912;-58
2022/02/09 22:50:12;;;;;;;;;;;0.90;99.90;;;;;;4181441;28;19966;-56
2022/02/09 22:54:41;;;;;;;;;;;0.90;99.90;;;;;;4190433;28;20437;-63
2022/02/09 22:56:42;;;;;;;;;;;0.90;99.90;;;;;;4190627;28;19913;-59
2022/02/09 22:58:43;;;;;;;;;;;0.90;99.90;;;;;;4190242;28;19947;-57
2022/02/09 23:02:58;;;;;;;;;;;0.90;99.90;;;;;;4192984;28;20697;-59
2022/02/09 23:07:26;;;;;;;;;;;1.00;99.90;;;;;;4190064;28;19912;-58
2022/02/09 23:16:08;;;;;;;;;;;1.00;99.90;;;;;;4193794;28;20242;-58
2022/02/09 23:23:12;;;;;;;;;;;1.00;99.90;;;;;;4193418;28;20536;-59
